sensor_id;sensor_type;location;lat;lon;timestamp;P1;durP1;ratioP1;P2;durP2;ratioP2
48026;SDS011;50714;49.208;5.364;2023-10-31T00:02:42;1.73;;;1.35;;
48026;SDS011;50714;49.208;5.364;2023-10-31T00:12:42;1.50;;;1.30;;
48026;SDS011;50714;49.208;5.364;2023-10-31T00:22:43;1.35;;;1.25;;
48026;SDS011;50714;49.208;5.364;2023-10-31T00:32:44;1.30;;;1.20;;
48026;SDS011;50714;49.208;5.364;2023-10-31T00:42:45;2.72;;;1.52;;
48026;SDS011;50714;49.208;5.364;2023-10-31T00:52:45;1.70;;;1.40;;
48026;SDS011;50714;49.208;5.364;2023-10-31T01:02:46;2.42;;;1.23;;
48026;SDS011;50714;49.208;5.364;2023-10-31T01:12:46;1.10;;;1.00;;
48026;SDS011;50714;49.208;5.364;2023-10-31T01:22:46;1.50;;;1.05;;
48026;SDS011;50714;49.208;5.364;2023-10-31T01:32:47;1.45;;;1.20;;
48026;SDS011;50714;49.208;5.364;2023-10-31T01:42:47;2.85;;;1.45;;
48026;SDS011;50714;49.208;5.364;2023-10-31T01:52:47;1.77;;;1.45;;
48026;SDS011;50714;49.208;5.364;2023-10-31T02:02:48;2.37;;;1.43;;
48026;SDS011;50714;49.208;5.364;2023-10-31T02:12:52;1.48;;;1.10;;
48026;SDS011;50714;49.208;5.364;2023-10-31T02:22:52;1.58;;;1.10;;
48026;SDS011;50714;49.208;5.364;2023-10-31T02:32:52;1.63;;;1.13;;
48026;SDS011;50714;49.208;5.364;2023-10-31T02:42:53;1.67;;;1.25;;
48026;SDS011;50714;49.208;5.364;2023-10-31T02:52:53;1.85;;;1.10;;
48026;SDS011;50714;49.208;5.364;2023-10-31T03:02:53;1.52;;;1.30;;
48026;SDS011;50714;49.208;5.364;2023-10-31T03:12:54;2.05;;;1.20;;
48026;SDS011;50714;49.208;5.364;2023-10-31T03:22:54;1.92;;;1.30;;
48026;SDS011;50714;49.208;5.364;2023-10-31T03:32:54;2.35;;;1.42;;
48026;SDS011;50714;49.208;5.364;2023-10-31T03:42:54;1.70;;;1.35;;
48026;SDS011;50714;49.208;5.364;2023-10-31T03:52:55;2.58;;;1.42;;
48026;SDS011;50714;49.208;5.364;2023-10-31T04:02:55;4.32;;;1.80;;
48026;SDS011;50714;49.208;5.364;2023-10-31T04:12:55;2.95;;;1.83;;
48026;SDS011;50714;49.208;5.364;2023-10-31T04:22:56;2.47;;;1.67;;
48026;SDS011;50714;49.208;5.364;2023-10-31T04:32:56;3.13;;;1.67;;
48026;SDS011;50714;49.208;5.364;2023-10-31T04:42:56;2.08;;;1.10;;
48026;SDS011;50714;49.208;5.364;2023-10-31T04:52:57;2.95;;;1.40;;
48026;SDS011;50714;49.208;5.364;2023-10-31T05:02:57;2.15;;;1.30;;
48026;SDS011;50714;49.208;5.364;2023-10-31T05:12:58;2.00;;;1.10;;
48026;SDS011;50714;49.208;5.364;2023-10-31T05:23:00;3.78;;;1.52;;
48026;SDS011;50714;49.208;5.364;2023-10-31T05:33:00;1.60;;;1.30;;
48026;SDS011;50714;49.208;5.364;2023-10-31T05:43:01;5.60;;;2.10;;
48026;SDS011;50714;49.208;5.364;2023-10-31T05:53:02;3.58;;;1.70;;
48026;SDS011;50714;49.208;5.364;2023-10-31T06:03:03;4.50;;;2.58;;
48026;SDS011;50714;49.208;5.364;2023-10-31T06:13:03;4.45;;;2.67;;
48026;SDS011;50714;49.208;5.364;2023-10-31T06:23:03;2.55;;;1.98;;
48026;SDS011;50714;49.208;5.364;2023-10-31T06:33:04;3.05;;;1.52;;
48026;SDS011;50714;49.208;5.364;2023-10-31T06:43:04;1.63;;;1.30;;
48026;SDS011;50714;49.208;5.364;2023-10-31T06:53:04;2.92;;;1.80;;
48026;SDS011;50714;49.208;5.364;2023-10-31T07:03:05;3.58;;;2.00;;
48026;SDS011;50714;49.208;5.364;2023-10-31T07:13:09;4.03;;;2.42;;
48026;SDS011;50714;49.208;5.364;2023-10-31T07:23:09;3.65;;;2.00;;
48026;SDS011;50714;49.208;5.364;2023-10-31T07:33:09;4.47;;;2.03;;
48026;SDS011;50714;49.208;5.364;2023-10-31T07:43:09;4.00;;;2.08;;
48026;SDS011;50714;49.208;5.364;2023-10-31T07:53:10;5.20;;;2.70;;
48026;SDS011;50714;49.208;5.364;2023-10-31T08:03:10;4.07;;;2.20;;
48026;SDS011;50714;49.208;5.364;2023-10-31T08:13:10;2.78;;;1.88;;
48026;SDS011;50714;49.208;5.364;2023-10-31T08:23:11;3.15;;;1.80;;
48026;SDS011;50714;49.208;5.364;2023-10-31T08:33:11;7.38;;;6.68;;
48026;SDS011;50714;49.208;5.364;2023-10-31T08:43:12;2.15;;;1.65;;
48026;SDS011;50714;49.208;5.364;2023-10-31T08:53:12;2.03;;;1.20;;
48026;SDS011;50714;49.208;5.364;2023-10-31T09:03:12;2.88;;;1.77;;
48026;SDS011;50714;49.208;5.364;2023-10-31T09:13:13;1.48;;;1.08;;
48026;SDS011;50714;49.208;5.364;2023-10-31T09:23:14;2.60;;;1.10;;
48026;SDS011;50714;49.208;5.364;2023-10-31T09:33:14;2.72;;;1.88;;
48026;SDS011;50714;49.208;5.364;2023-10-31T09:43:14;1.48;;;1.00;;
48026;SDS011;50714;49.208;5.364;2023-10-31T09:53:15;2.10;;;1.10;;
48026;SDS011;50714;49.208;5.364;2023-10-31T10:03:18;3.08;;;1.35;;
48026;SDS011;50714;49.208;5.364;2023-10-31T10:13:22;2.22;;;1.40;;
48026;SDS011;50714;49.208;5.364;2023-10-31T10:23:23;9.63;;;6.60;;
48026;SDS011;50714;49.208;5.364;2023-10-31T10:33:24;18.52;;;13.20;;
48026;SDS011;50714;49.208;5.364;2023-10-31T10:43:25;5.35;;;3.28;;
48026;SDS011;50714;49.208;5.364;2023-10-31T10:53:29;8.32;;;6.20;;
48026;SDS011;50714;49.208;5.364;2023-10-31T11:03:35;2.88;;;2.10;;
48026;SDS011;50714;49.208;5.364;2023-10-31T11:13:37;2.60;;;1.50;;
48026;SDS011;50714;49.208;5.364;2023-10-31T11:23:38;2.28;;;1.40;;
48026;SDS011;50714;49.208;5.364;2023-10-31T11:33:39;3.03;;;1.83;;
48026;SDS011;50714;49.208;5.364;2023-10-31T11:53:43;4.95;;;3.22;;
48026;SDS011;50714;49.208;5.364;2023-10-31T12:03:44;5.20;;;3.13;;
48026;SDS011;50714;49.208;5.364;2023-10-31T12:13:58;2.53;;;1.95;;
48026;SDS011;50714;49.208;5.364;2023-10-31T12:24:04;2.83;;;2.20;;
48026;SDS011;50714;49.208;5.364;2023-10-31T12:34:05;3.22;;;1.63;;
48026;SDS011;50714;49.208;5.364;2023-10-31T12:44:06;2.10;;;1.40;;
48026;SDS011;50714;49.208;5.364;2023-10-31T12:54:10;2.63;;;1.60;;
48026;SDS011;50714;49.208;5.364;2023-10-31T13:04:11;3.38;;;1.70;;
48026;SDS011;50714;49.208;5.364;2023-10-31T13:14:14;3.63;;;1.20;;
48026;SDS011;50714;49.208;5.364;2023-10-31T13:24:14;3.10;;;1.65;;
48026;SDS011;50714;49.208;5.364;2023-10-31T13:34:14;8.50;;;5.70;;
48026;SDS011;50714;49.208;5.364;2023-10-31T13:44:15;11.87;;;8.37;;
48026;SDS011;50714;49.208;5.364;2023-10-31T13:54:15;9.35;;;5.75;;
48026;SDS011;50714;49.208;5.364;2023-10-31T14:04:16;17.48;;;10.75;;
48026;SDS011;50714;49.208;5.364;2023-10-31T14:14:18;7.00;;;4.35;;
48026;SDS011;50714;49.208;5.364;2023-10-31T14:24:19;5.85;;;3.80;;
48026;SDS011;50714;49.208;5.364;2023-10-31T14:34:19;3.80;;;2.20;;
48026;SDS011;50714;49.208;5.364;2023-10-31T14:44:21;4.00;;;1.73;;
48026;SDS011;50714;49.208;5.364;2023-10-31T14:54:21;2.90;;;1.50;;
48026;SDS011;50714;49.208;5.364;2023-10-31T15:04:21;2.05;;;1.20;;
48026;SDS011;50714;49.208;5.364;2023-10-31T15:14:22;2.50;;;1.52;;
48026;SDS011;50714;49.208;5.364;2023-10-31T15:24:22;2.17;;;1.50;;
48026;SDS011;50714;49.208;5.364;2023-10-31T15:34:22;5.78;;;3.58;;
48026;SDS011;50714;49.208;5.364;2023-10-31T15:44:23;10.77;;;6.07;;
48026;SDS011;50714;49.208;5.364;2023-10-31T15:54:23;12.00;;;8.52;;
48026;SDS011;50714;49.208;5.364;2023-10-31T16:04:24;11.65;;;8.05;;
48026;SDS011;50714;49.208;5.364;2023-10-31T16:14:25;11.27;;;7.43;;
48026;SDS011;50714;49.208;5.364;2023-10-31T16:24:26;22.98;;;17.45;;
48026;SDS011;50714;49.208;5.364;2023-10-31T16:34:26;14.13;;;10.05;;
48026;SDS011;50714;49.208;5.364;2023-10-31T16:44:26;11.15;;;8.88;;
48026;SDS011;50714;49.208;5.364;2023-10-31T16:54:27;10.50;;;7.63;;
48026;SDS011;50714;49.208;5.364;2023-10-31T17:04:27;4.35;;;2.58;;
48026;SDS011;50714;49.208;5.364;2023-10-31T17:14:28;3.53;;;1.95;;
48026;SDS011;50714;49.208;5.364;2023-10-31T17:24:28;4.32;;;2.30;;
48026;SDS011;50714;49.208;5.364;2023-10-31T17:34:28;3.83;;;1.90;;
48026;SDS011;50714;49.208;5.364;2023-10-31T17:44:29;4.15;;;2.72;;
48026;SDS011;50714;49.208;5.364;2023-10-31T17:54:29;5.68;;;3.95;;
48026;SDS011;50714;49.208;5.364;2023-10-31T18:04:31;8.43;;;4.78;;
48026;SDS011;50714;49.208;5.364;2023-10-31T18:14:32;6.63;;;4.32;;
48026;SDS011;50714;49.208;5.364;2023-10-31T18:24:32;4.35;;;2.83;;
48026;SDS011;50714;49.208;5.364;2023-10-31T18:34:33;4.95;;;1.90;;
48026;SDS011;50714;49.208;5.364;2023-10-31T18:44:33;4.57;;;2.28;;
48026;SDS011;50714;49.208;5.364;2023-10-31T18:54:34;5.65;;;3.20;;
48026;SDS011;50714;49.208;5.364;2023-10-31T19:04:35;6.18;;;4.43;;
48026;SDS011;50714;49.208;5.364;2023-10-31T19:14:35;5.97;;;3.92;;
48026;SDS011;50714;49.208;5.364;2023-10-31T19:24:35;10.07;;;7.55;;
48026;SDS011;50714;49.208;5.364;2023-10-31T19:34:36;5.55;;;3.08;;
48026;SDS011;50714;49.208;5.364;2023-10-31T19:44:39;4.80;;;2.80;;
48026;SDS011;50714;49.208;5.364;2023-10-31T19:54:41;2.00;;;1.60;;
48026;SDS011;50714;49.208;5.364;2023-10-31T20:04:41;2.42;;;1.48;;
48026;SDS011;50714;49.208;5.364;2023-10-31T20:14:42;2.95;;;1.60;;
48026;SDS011;50714;49.208;5.364;2023-10-31T20:24:42;3.85;;;1.75;;
48026;SDS011;50714;49.208;5.364;2023-10-31T20:34:43;3.60;;;1.80;;
48026;SDS011;50714;49.208;5.364;2023-10-31T20:44:43;2.25;;;1.60;;
48026;SDS011;50714;49.208;5.364;2023-10-31T20:54:43;2.30;;;1.48;;
48026;SDS011;50714;49.208;5.364;2023-10-31T21:04:46;3.65;;;1.50;;
48026;SDS011;50714;49.208;5.364;2023-10-31T21:14:47;2.58;;;1.20;;
48026;SDS011;50714;49.208;5.364;2023-10-31T21:24:47;2.35;;;1.17;;
48026;SDS011;50714;49.208;5.364;2023-10-31T21:34:47;2.80;;;1.33;;
48026;SDS011;50714;49.208;5.364;2023-10-31T21:44:48;4.43;;;2.30;;
48026;SDS011;50714;49.208;5.364;2023-10-31T21:54:48;2.42;;;1.35;;
48026;SDS011;50714;49.208;5.364;2023-10-31T22:04:48;2.92;;;1.45;;
48026;SDS011;50714;49.208;5.364;2023-10-31T22:14:49;2.75;;;1.40;;
48026;SDS011;50714;49.208;5.364;2023-10-31T22:24:49;2.92;;;1.35;;
48026;SDS011;50714;49.208;5.364;2023-10-31T22:34:49;2.50;;;1.25;;
48026;SDS011;50714;49.208;5.364;2023-10-31T22:44:50;3.53;;;1.67;;
48026;SDS011;50714;49.208;5.364;2023-10-31T22:54:50;4.53;;;1.90;;
48026;SDS011;50714;49.208;5.364;2023-10-31T23:04:50;4.85;;;2.17;;
48026;SDS011;50714;49.208;5.364;2023-10-31T23:14:53;3.30;;;1.50;;
48026;SDS011;50714;49.208;5.364;2023-10-31T23:24:54;3.25;;;1.38;;
48026;SDS011;50714;49.208;5.364;2023-10-31T23:34:54;2.17;;;1.33;;
48026;SDS011;50714;49.208;5.364;2023-10-31T23:44:55;3.03;;;1.17;;
48026;SDS011;50714;49.208;5.364;2023-10-31T23:54:56;2.92;;;1.77;;
